Time;durP1;ratioP1;P1;durP2;ratioP2;P2;SDS_P1;SDS_P2;PMS_P1;PMS_P2;Temp;Humidity;BMP_temperature;BMP_pressure;BME280_temperature;BME280_humidity;BME280_pressure;Samples;Min_cycle;Max_cycle;Signal;HPM_P1;HPM_P2
2022/06/24 00:00:13;;;;;;;2.95;0.90;;;18.60;71.70;;;;;;5025444;28;20042;-41
2022/06/24 00:02:39;;;;;;;3.05;0.80;;;18.50;73.70;;;;;;5026993;28;20370;-42
2022/06/24 00:05:11;;;;;;;3.17;1.10;;;18.40;77.20;;;;;;5026548;28;20033;-42
2022/06/24 00:07:50;;;;;;;2.15;0.93;;;18.40;79.80;;;;;;5027002;28;20084;-42
2022/06/24 00:10:21;;;;;;;2.10;1.00;;;18.60;79.30;;;;;;5027128;28;20124;-42
2022/06/24 00:12:48;;;;;;;1.70;1.00;;;18.10;77.20;;;;;;5027379;28;20041;-43
2022/06/24 00:15:14;;;;;;;6.25;1.48;;;18.00;77.30;;;;;;5027271;28;20512;-42
2022/06/24 00:17:40;;;;;;;4.53;1.35;;;18.00;78.60;;;;;;5031190;28;20095;-41
2022/06/24 00:20:09;;;;;;;3.90;0.98;;;17.80;77.20;;;;;;5029950;28;20056;-42
2022/06/24 00:22:43;;;;;;;3.25;1.20;;;17.80;76.60;;;;;;5031119;28;20120;-41
2022/06/24 00:25:18;;;;;;;3.38;1.70;;;17.80;77.90;;;;;;5030973;28;20092;-43
2022/06/24 00:28:02;;;;;;;2.08;1.10;;;17.70;79.40;;;;;;5030584;28;20046;-41
2022/06/24 00:30:28;;;;;;;3.33;1.30;;;17.60;78.80;;;;;;5030974;28;20056;-41
2022/06/24 00:33:18;;;;;;;3.90;1.15;;;17.50;80.10;;;;;;5030284;28;20539;-42
2022/06/24 00:35:56;;;;;;;3.78;1.40;;;17.90;80.80;;;;;;5030645;28;20057;-42
2022/06/24 00:38:32;;;;;;;2.97;1.60;;;17.30;80.40;;;;;;5031103;28;20049;-41
2022/06/24 00:41:05;;;;;;;3.67;0.93;;;17.10;81.70;;;;;;5030761;28;20048;-42
2022/06/24 00:43:39;;;;;;;3.58;1.40;;;17.10;82.00;;;;;;5030660;28;20083;-42
2022/06/24 00:46:31;;;;;;;2.90;1.20;;;17.10;83.10;;;;;;5030234;28;20069;-41
2022/06/24 00:48:59;;;;;;;2.42;1.42;;;17.00;86.20;;;;;;5030290;28;20056;-41
2022/06/24 00:51:38;;;;;;;2.58;1.42;;;16.90;87.50;;;;;;5031105;28;20095;-42
2022/06/24 00:54:15;;;;;;;4.35;2.10;;;16.80;88.10;;;;;;5030771;28;20072;-43
2022/06/24 00:56:41;;;;;;;6.45;1.85;;;16.80;90.60;;;;;;5030692;28;20053;-41
2022/06/24 00:59:08;;;;;;;1.88;1.27;;;16.90;91.40;;;;;;5030846;28;20057;-42
2022/06/24 01:01:39;;;;;;;4.15;1.77;;;16.70;92.20;;;;;;5030935;28;20452;-41
2022/06/24 01:04:10;;;;;;;3.40;1.50;;;16.60;92.50;;;;;;5030570;28;20120;-41
2022/06/24 01:06:38;;;;;;;5.15;2.05;;;16.60;92.60;;;;;;5030719;28;20073;-41
2022/06/24 01:09:05;;;;;;;5.07;1.98;;;16.90;92.70;;;;;;5030211;28;20164;-41
2022/06/24 01:11:42;;;;;;;3.28;2.30;;;16.60;92.00;;;;;;5029704;28;20049;-41
2022/06/24 01:14:09;;;;;;;4.57;1.88;;;16.70;91.00;;;;;;5030587;28;20120;-41
2022/06/24 01:16:35;;;;;;;5.50;2.38;;;16.90;90.90;;;;;;5030392;28;20570;-41
2022/06/24 01:19:03;;;;;;;5.68;2.00;;;16.90;90.50;;;;;;5030208;28;20038;-41
2022/06/24 01:21:40;;;;;;;4.55;2.30;;;17.20;90.90;;;;;;5030132;28;20047;-41
2022/06/24 01:24:17;;;;;;;2.80;2.13;;;16.70;89.70;;;;;;5030101;28;20378;-41
2022/06/24 01:26:46;;;;;;;4.55;2.15;;;16.70;88.90;;;;;;5029423;28;20050;-42
2022/06/24 01:29:12;;;;;;;3.00;2.33;;;16.90;90.30;;;;;;5030113;28;20045;-42
2022/06/24 01:31:40;;;;;;;3.70;2.33;;;16.50;90.50;;;;;;5029983;28;20041;-41
2022/06/24 01:34:07;;;;;;;10.98;2.33;;;16.80;91.00;;;;;;5029557;28;20080;-43
2022/06/24 01:36:32;;;;;;;6.32;2.78;;;16.30;92.00;;;;;;5029967;28;20045;-41
2022/06/24 01:38:58;;;;;;;3.28;2.30;;;16.30;91.80;;;;;;5029854;28;20514;-41
2022/06/24 01:41:24;;;;;;;3.10;2.10;;;16.70;91.90;;;;;;5029873;28;20543;-41
2022/06/24 01:43:50;;;;;;;3.35;2.10;;;16.30;91.90;;;;;;5029918;28;20053;-41
2022/06/24 01:46:15;;;;;;;2.72;2.47;;;16.60;92.30;;;;;;5029317;28;20095;-42
2022/06/24 01:48:41;;;;;;;3.72;2.30;;;16.30;92.40;;;;;;5029543;28;20095;-41
2022/06/24 01:51:09;;;;;;;4.45;2.30;;;16.30;91.40;;;;;;5029063;28;20041;-41
2022/06/24 01:53:35;;;;;;;3.20;2.30;;;16.80;91.30;;;;;;5029640;28;20132;-41
2022/06/24 01:56:02;;;;;;;4.35;2.10;;;16.70;91.10;;;;;;5029528;28;20037;-41
2022/06/24 01:58:27;;;;;;;3.13;2.25;;;16.40;91.00;;;;;;5030070;28;20041;-41
2022/06/24 02:00:53;;;;;;;5.88;2.63;;;16.50;91.00;;;;;;5029306;28;20438;-41
2022/06/24 02:03:19;;;;;;;3.75;2.60;;;16.30;91.20;;;;;;5029397;28;20137;-41
2022/06/24 02:05:46;;;;;;;4.13;2.60;;;16.20;91.70;;;;;;5028986;28;20049;-41
2022/06/24 02:08:15;;;;;;;3.67;3.10;;;16.20;92.30;;;;;;5028968;28;20043;-41
2022/06/24 02:13:26;;;;;;;4.13;2.35;;;16.00;92.70;;;;;;5029090;28;20099;-41
2022/06/24 02:15:54;;;;;;;5.13;2.70;;;15.90;93.10;;;;;;5028465;28;20049;-42
2022/06/24 02:18:20;;;;;;;3.30;2.65;;;15.90;93.60;;;;;;5028816;28;20377;-42
2022/06/24 02:20:46;;;;;;;3.58;2.38;;;16.20;93.70;;;;;;5028520;28;20529;-41
2022/06/24 02:23:12;;;;;;;4.20;2.67;;;16.30;94.00;;;;;;5028138;28;20080;-41
2022/06/24 02:25:38;;;;;;;3.05;2.20;;;15.70;94.30;;;;;;5028388;28;20115;-42
2022/06/24 02:28:03;;;;;;;2.83;2.25;;;15.60;94.30;;;;;;5028558;28;20124;-41
2022/06/24 02:30:29;;;;;;;3.60;2.20;;;15.60;94.80;;;;;;5028574;28;20560;-41
2022/06/24 02:32:55;;;;;;;5.65;2.78;;;15.40;94.40;;;;;;5028582;28;20041;-41
2022/06/24 02:35:21;;;;;;;4.38;3.15;;;15.70;94.00;;;;;;5028726;28;20521;-41
2022/06/24 02:37:46;;;;;;;3.10;2.65;;;15.30;94.30;;;;;;5028265;28;20512;-41
2022/06/24 02:42:57;;;;;;;4.50;3.25;;;15.50;94.90;;;;;;5028893;28;20056;-41
2022/06/24 02:45:23;;;;;;;4.65;3.35;;;15.30;94.70;;;;;;5028766;28;20040;-41
2022/06/24 02:47:49;;;;;;;7.40;3.50;;;15.30;94.50;;;;;;5028781;28;20091;-40
2022/06/24 02:50:15;;;;;;;6.20;3.35;;;15.30;94.60;;;;;;5028865;28;20052;-41
2022/06/24 02:52:41;;;;;;;3.53;3.20;;;15.20;94.80;;;;;;5028915;28;20450;-41
2022/06/24 02:55:07;;;;;;;4.32;3.30;;;15.30;94.70;;;;;;5028497;28;20092;-42
2022/06/24 02:57:32;;;;;;;5.53;3.13;;;15.30;94.20;;;;;;5028590;28;20076;-41
2022/06/24 02:59:58;;;;;;;6.63;4.13;;;15.50;94.00;;;;;;5028588;28;20490;-42
2022/06/24 03:02:24;;;;;;;5.05;3.63;;;15.60;93.70;;;;;;5028678;28;20486;-42
2022/06/24 03:04:50;;;;;;;8.30;3.85;;;16.10;93.50;;;;;;5028980;28;20052;-43
2022/06/24 03:07:15;;;;;;;5.82;3.53;;;16.00;93.30;;;;;;5028251;28;20654;-41
2022/06/24 03:09:41;;;;;;;4.93;3.63;;;15.90;93.30;;;;;;5027721;28;20041;-41
2022/06/24 03:12:07;;;;;;;4.53;3.40;;;15.90;93.60;;;;;;5027975;28;20084;-41
2022/06/24 03:14:33;;;;;;;6.75;4.13;;;15.90;93.60;;;;;;5027912;28;20508;-41
2022/06/24 03:16:58;;;;;;;7.72;4.10;;;16.00;93.50;;;;;;5027866;28;20052;-41
2022/06/24 03:19:24;;;;;;;9.45;3.63;;;16.00;93.40;;;;;;5027763;28;20081;-41
2022/06/24 03:21:50;;;;;;;6.38;4.22;;;16.10;93.30;;;;;;5027903;28;20156;-41
2022/06/24 03:24:15;;;;;;;6.93;4.20;;;16.10;93.30;;;;;;5026371;28;20049;-41
2022/06/24 03:26:41;;;;;;;6.68;3.78;;;16.20;92.90;;;;;;5027360;28;20843;-41
2022/06/24 03:29:07;;;;;;;5.18;3.50;;;16.30;92.60;;;;;;5025628;28;20057;-41
2022/06/24 03:31:32;;;;;;;4.18;3.05;;;16.40;92.30;;;;;;5027458;28;20049;-42
2022/06/24 03:33:58;;;;;;;3.42;2.90;;;16.50;92.00;;;;;;5027163;28;20570;-41
2022/06/24 03:36:25;;;;;;;5.05;3.47;;;16.60;91.80;;;;;;5027424;28;20041;-41
2022/06/24 03:38:51;;;;;;;4.18;3.25;;;16.70;92.10;;;;;;5027583;28;20045;-41
2022/06/24 03:41:17;;;;;;;3.78;2.90;;;16.70;92.40;;;;;;5025665;28;20041;-42
2022/06/24 03:43:43;;;;;;;3.78;2.60;;;16.70;92.60;;;;;;5027430;28;20261;-41
2022/06/24 03:46:08;;;;;;;6.18;2.50;;;16.80;92.60;;;;;;5027069;28;20041;-41
2022/06/24 03:48:34;;;;;;;2.92;2.25;;;16.80;92.40;;;;;;5027115;28;20049;-41
2022/06/24 03:51:00;;;;;;;3.50;2.22;;;16.90;92.60;;;;;;5027297;28;20042;-41
2022/06/24 03:53:25;;;;;;;6.85;2.67;;;17.00;91.80;;;;;;5042775;28;20041;-42
2022/06/24 03:55:52;;;;;;;3.00;2.40;;;17.10;91.20;;;;;;5027318;28;20507;-41
2022/06/24 03:58:19;;;;;;;4.60;2.83;;;17.30;90.90;;;;;;5027229;28;20049;-41
2022/06/24 04:00:45;;;;;;;4.68;2.10;;;17.40;90.70;;;;;;5026918;28;20397;-42
2022/06/24 04:03:11;;;;;;;3.65;2.65;;;17.40;90.50;;;;;;5027112;28;20096;-41
2022/06/24 04:05:37;;;;;;;4.70;2.92;;;17.60;90.10;;;;;;5027121;28;20128;-42
2022/06/24 04:08:03;;;;;;;4.85;2.33;;;17.70;89.40;;;;;;5026820;28;20168;-41
2022/06/24 04:10:30;;;;;;;4.97;2.65;;;17.90;89.20;;;;;;5026499;28;20082;-41
2022/06/24 04:12:55;;;;;;;6.03;2.40;;;17.90;89.20;;;;;;5026851;28;20041;-42
2022/06/24 04:15:21;;;;;;;2.95;2.38;;;18.00;89.20;;;;;;5026854;28;20049;-41
2022/06/24 04:17:48;;;;;;;6.22;2.72;;;18.10;89.40;;;;;;5026947;28;20049;-42
2022/06/24 04:20:15;;;;;;;4.47;2.83;;;18.40;88.80;;;;;;5026652;28;20115;-41
2022/06/24 04:22:41;;;;;;;2.92;1.98;;;19.40;86.40;;;;;;5027180;28;20344;-42
2022/06/24 04:25:08;;;;;;;5.07;2.22;;;20.10;83.70;;;;;;5026730;28;20060;-42
2022/06/24 04:27:34;;;;;;;3.33;1.67;;;20.90;80.40;;;;;;5026865;28;20085;-41
2022/06/24 04:30:06;;;;;;;3.67;2.08;;;21.20;81.10;;;;;;5025417;28;20049;-41
2022/06/24 04:32:32;;;;;;;4.28;1.88;;;21.20;77.90;;;;;;5026546;28;20124;-41
2022/06/24 04:34:58;;;;;;;4.20;1.63;;;21.00;77.70;;;;;;5026410;28;20481;-41
2022/06/24 04:37:23;;;;;;;5.38;2.25;;;20.90;77.90;;;;;;5041582;28;20037;-42
2022/06/24 04:39:49;;;;;;;5.13;2.15;;;20.90;77.30;;;;;;5026583;28;20614;-42
2022/06/24 04:42:15;;;;;;;4.72;2.90;;;20.80;78.30;;;;;;5026392;28;20045;-42
2022/06/24 04:44:41;;;;;;;6.53;2.35;;;20.60;80.40;;;;;;5026878;28;20048;-41
2022/06/24 04:47:06;;;;;;;2.30;1.63;;;20.50;81.10;;;;;;5026432;28;20537;-41
2022/06/24 04:49:33;;;;;;;4.03;2.30;;;20.30;81.50;;;;;;5026219;28;20052;-43
2022/06/24 04:51:59;;;;;;;3.10;1.80;;;20.30;81.30;;;;;;5026704;28;20386;-41
2022/06/24 04:54:25;;;;;;;3.80;1.77;;;20.20;80.60;;;;;;5025976;28;20489;-42
2022/06/24 04:56:50;;;;;;;7.45;1.95;;;20.20;79.80;;;;;;5026533;28;20459;-42
2022/06/24 04:59:16;;;;;;;5.75;2.00;;;20.20;79.40;;;;;;5026661;28;20049;-41
2022/06/24 05:01:42;;;;;;;4.53;2.20;;;20.20;78.70;;;;;;5027319;28;20045;-41
2022/06/24 05:04:08;;;;;;;3.80;2.28;;;20.20;79.00;;;;;;5030130;28;20586;-44
2022/06/24 05:06:34;;;;;;;3.47;2.10;;;20.10;80.30;;;;;;5029859;28;20049;-41
2022/06/24 05:08:59;;;;;;;4.20;2.40;;;20.10;81.70;;;;;;5030118;28;20044;-41
2022/06/24 05:11:25;;;;;;;4.25;2.13;;;20.00;82.30;;;;;;5029034;28;20038;-43
2022/06/24 05:13:51;;;;;;;5.78;2.00;;;20.00;81.60;;;;;;5029717;28;20037;-42
2022/06/24 05:16:17;;;;;;;2.47;1.98;;;20.10;80.80;;;;;;5029742;28;20092;-41
2022/06/24 05:18:42;;;;;;;4.20;2.15;;;20.30;80.20;;;;;;5029973;28;20037;-42
2022/06/24 05:21:09;;;;;;;5.25;1.92;;;20.40;79.90;;;;;;5029861;28;20065;-42
2022/06/24 05:23:34;;;;;;;6.32;2.30;;;20.60;79.80;;;;;;5029220;28;20227;-42
2022/06/24 05:26:00;;;;;;;9.55;2.53;;;20.90;80.00;;;;;;5029634;28;20124;-42
2022/06/24 05:28:26;;;;;;;4.50;2.40;;;21.20;80.30;;;;;;5029726;28;20049;-42
2022/06/24 05:30:58;;;;;;;7.40;3.05;;;21.50;81.00;;;;;;5029453;28;20049;-42
2022/06/24 05:33:24;;;;;;;6.88;2.90;;;21.80;81.20;;;;;;5029701;28;20094;-42
2022/06/24 05:35:54;;;;;;;6.05;3.92;;;22.20;81.50;;;;;;5029541;28;20400;-37
2022/06/24 05:38:23;;;;;;;5.90;4.00;;;22.40;82.00;;;;;;5029688;28;20049;-37
2022/06/24 05:40:50;;;;;;;6.70;5.07;;;22.60;82.80;;;;;;5029720;28;20169;-37
2022/06/24 05:43:17;;;;;;;9.65;6.22;;;22.50;83.40;;;;;;5029299;28;20095;-37
2022/06/24 05:45:43;;;;;;;8.77;6.00;;;22.30;85.50;;;;;;5029317;28;20072;-37
2022/06/24 05:48:09;;;;;;;9.60;6.22;;;22.10;89.00;;;;;;5029075;28;20038;-38
2022/06/24 05:50:38;;;;;;;8.75;6.35;;;21.90;90.60;;;;;;5029025;28;20068;-37
2022/06/24 05:55:49;;;;;;;11.88;7.47;;;21.50;91.90;;;;;;5029103;28;20045;-37
2022/06/24 05:58:16;;;;;;;37.83;13.65;;;21.20;92.60;;;;;;5027442;28;20124;-38
2022/06/24 06:00:42;;;;;;;31.27;13.00;;;20.80;99.90;;;;;;5029363;28;20052;-38
2022/06/24 06:03:08;;;;;;;22.80;11.93;;;20.30;99.90;;;;;;5029067;28;20077;-38
2022/06/24 06:05:33;;;;;;;36.70;14.20;;;19.80;99.90;;;;;;5028576;28;20069;-38
2022/06/24 06:07:59;;;;;;;30.77;15.10;;;19.50;99.90;;;;;;5028591;28;20052;-38
2022/06/24 06:10:25;;;;;;;31.05;15.15;;;19.40;99.90;;;;;;5027971;28;20049;-38
2022/06/24 06:12:51;;;;;;;22.67;15.07;;;19.30;99.90;;;;;;5028117;28;20380;-38
2022/06/24 06:15:16;;;;;;;22.73;14.52;;;19.20;99.90;;;;;;5028004;28;20053;-38
2022/06/24 06:17:42;;;;;;;15.15;13.15;;;19.10;99.90;;;;;;5028763;28;20073;-38
2022/06/24 06:20:08;;;;;;;27.70;16.65;;;19.10;99.90;;;;;;5028360;28;20098;-38
2022/06/24 06:22:34;;;;;;;17.65;13.80;;;19.10;99.90;;;;;;5028392;28;20068;-38
2022/06/24 06:24:59;;;;;;;20.65;14.60;;;19.20;99.90;;;;;;5028549;28;20065;-38
2022/06/24 06:27:25;;;;;;;17.63;15.18;;;19.20;99.90;;;;;;5028572;28;20049;-38
2022/06/24 06:29:51;;;;;;;20.25;15.43;;;19.30;99.90;;;;;;5029668;28;20053;-38
2022/06/24 06:32:16;;;;;;;22.00;14.70;;;19.10;99.90;;;;;;5029106;28;20050;-38
2022/06/24 06:34:42;;;;;;;22.45;16.73;;;19.10;99.90;;;;;;5028305;28;20480;-38
2022/06/24 06:37:08;;;;;;;20.13;16.40;;;19.10;99.90;;;;;;5028706;28;20041;-38
2022/06/24 06:39:33;;;;;;;32.10;19.52;;;19.10;99.90;;;;;;5027786;28;20041;-38
2022/06/24 06:41:59;;;;;;;29.35;19.02;;;19.20;99.90;;;;;;5028157;28;20037;-38
2022/06/24 06:44:25;;;;;;;23.50;16.42;;;19.20;99.90;;;;;;5027839;28;20467;-38
2022/06/24 06:46:51;;;;;;;22.52;17.55;;;19.20;99.90;;;;;;5028284;28;20124;-38
2022/06/24 06:49:16;;;;;;;24.42;18.17;;;19.20;99.90;;;;;;5028397;28;20041;-38
2022/06/24 06:51:42;;;;;;;18.25;16.45;;;19.20;99.90;;;;;;5028091;28;20049;-39
2022/06/24 06:54:07;;;;;;;20.42;17.08;;;19.20;99.90;;;;;;5027588;28;20049;-38
2022/06/24 06:56:33;;;;;;;18.48;15.43;;;19.20;99.90;;;;;;5027513;28;20041;-38
2022/06/24 06:58:59;;;;;;;21.88;17.83;;;19.20;99.90;;;;;;5027861;28;20041;-38
2022/06/24 07:01:25;;;;;;;21.60;18.20;;;19.20;99.90;;;;;;5027511;28;20084;-38
2022/06/24 07:03:50;;;;;;;26.17;19.05;;;19.20;99.90;;;;;;5027894;28;20124;-38
2022/06/24 07:06:16;;;;;;;28.83;17.95;;;19.10;99.90;;;;;;5027824;28;20538;-38
2022/06/24 07:08:42;;;;;;;32.17;19.65;;;19.10;99.90;;;;;;5027451;28;20400;-38
2022/06/24 07:11:07;;;;;;;28.10;20.17;;;19.10;99.90;;;;;;5026742;28;20507;-38
2022/06/24 07:13:33;;;;;;;24.70;18.90;;;19.20;99.90;;;;;;5027248;28;20111;-38
2022/06/24 07:15:58;;;;;;;22.83;19.05;;;19.20;99.90;;;;;;5027677;28;20049;-38
2022/06/24 07:18:24;;;;;;;40.08;24.13;;;19.20;99.90;;;;;;5027140;28;20048;-38
2022/06/24 07:20:50;;;;;;;25.75;16.88;;;19.20;99.90;;;;;;5026980;28;20046;-38
2022/06/24 07:23:15;;;;;;;17.23;15.18;;;19.30;99.90;;;;;;5025804;28;20562;-38
2022/06/24 07:25:41;;;;;;;23.95;16.02;;;19.40;99.90;;;;;;5026591;28;20053;-38
2022/06/24 07:28:07;;;;;;;17.40;15.40;;;19.50;99.90;;;;;;5027227;28;20111;-38
2022/06/24 07:30:33;;;;;;;22.85;13.30;;;19.50;99.90;;;;;;5027287;28;20076;-38
2022/06/24 07:32:58;;;;;;;21.55;14.43;;;19.50;99.90;;;;;;5027071;28;20048;-38
2022/06/24 07:35:25;;;;;;;17.05;12.80;;;19.50;99.90;;;;;;5027001;28;20056;-38
2022/06/24 07:37:50;;;;;;;16.33;12.88;;;19.50;99.90;;;;;;5027251;28;20049;-38
2022/06/24 07:40:16;;;;;;;16.92;11.90;;;19.50;99.90;;;;;;5026269;28;20127;-38
2022/06/24 07:42:43;;;;;;;13.75;10.48;;;19.50;99.90;;;;;;5026686;28;20124;-38
2022/06/24 07:45:10;;;;;;;21.60;12.85;;;19.50;99.90;;;;;;5027039;28;20044;-38
2022/06/24 07:47:36;;;;;;;17.42;11.48;;;19.50;99.90;;;;;;5027143;28;20045;-38
2022/06/24 07:50:04;;;;;;;14.63;11.95;;;19.50;99.90;;;;;;5027044;28;20046;-38
2022/06/24 07:52:30;;;;;;;17.98;11.95;;;19.50;99.90;;;;;;5027069;28;20439;-38
2022/06/24 07:57:39;;;;;;;12.77;11.07;;;19.60;99.90;;;;;;5027200;28;20064;-47
2022/06/24 08:00:06;;;;;;;22.27;13.75;;;19.60;99.90;;;;;;5027264;28;20046;-37
2022/06/24 08:02:32;;;;;;;15.88;12.80;;;19.70;99.90;;;;;;5026910;28;20048;-38
2022/06/24 08:04:57;;;;;;;29.70;15.80;;;19.80;99.90;;;;;;5027220;28;20385;-38
2022/06/24 08:07:23;;;;;;;12.35;10.57;;;19.90;99.90;;;;;;5027371;28;20436;-38
2022/06/24 08:09:49;;;;;;;16.73;12.40;;;19.90;99.90;;;;;;5026096;28;20050;-38
2022/06/24 08:12:14;;;;;;;14.50;10.45;;;19.90;99.90;;;;;;5027077;28;20049;-38
2022/06/24 08:14:40;;;;;;;13.45;10.57;;;19.90;99.90;;;;;;5026944;28;20167;-38
2022/06/24 08:17:05;;;;;;;28.35;12.75;;;19.80;99.90;;;;;;5027481;28;20605;-38
2022/06/24 08:19:31;;;;;;;13.95;11.05;;;19.80;99.90;;;;;;5027282;28;20398;-38
2022/06/24 08:21:57;;;;;;;11.93;10.45;;;19.90;99.90;;;;;;5026996;28;20056;-38
2022/06/24 08:24:23;;;;;;;13.60;11.68;;;20.10;99.90;;;;;;5026514;28;20547;-38
2022/06/24 08:26:49;;;;;;;15.73;13.07;;;20.30;99.90;;;;;;5026258;28;20045;-38
2022/06/24 08:29:14;;;;;;;12.82;10.25;;;20.60;99.90;;;;;;5025389;28;20412;-38
2022/06/24 08:31:40;;;;;;;13.52;10.18;;;20.80;99.90;;;;;;5026487;28;20052;-38
2022/06/24 08:34:06;;;;;;;10.18;9.15;;;21.30;99.90;;;;;;5026450;28;20049;-38
2022/06/24 08:36:32;;;;;;;10.65;7.82;;;21.70;99.90;;;;;;5026523;28;20049;-38
2022/06/24 08:38:57;;;;;;;8.85;6.03;;;21.90;99.90;;;;;;5030209;28;20101;-38
2022/06/24 08:41:25;;;;;;;7.40;6.53;;;22.00;99.90;;;;;;5029762;28;20076;-38
2022/06/24 08:43:52;;;;;;;8.07;5.65;;;21.90;99.90;;;;;;5030295;28;20455;-38
2022/06/24 08:46:18;;;;;;;6.70;5.28;;;21.70;99.90;;;;;;5030158;28;20040;-38
2022/06/24 08:48:44;;;;;;;5.80;5.13;;;21.60;99.90;;;;;;5029645;28;20649;-38
2022/06/24 08:51:13;;;;;;;4.43;3.70;;;21.60;99.90;;;;;;5030420;28;20041;-38
2022/06/24 08:53:39;;;;;;;6.35;5.40;;;21.50;99.90;;;;;;5030061;28;20134;-38
2022/06/24 08:56:06;;;;;;;5.53;4.25;;;21.40;99.90;;;;;;5029274;28;20045;-38
2022/06/24 08:58:32;;;;;;;9.45;4.05;;;21.30;99.90;;;;;;5030472;28;20128;-38
2022/06/24 09:00:58;;;;;;;6.20;4.47;;;21.30;99.90;;;;;;5029946;28;20559;-38
2022/06/24 09:03:24;;;;;;;5.97;4.75;;;21.20;99.90;;;;;;5029938;28;20049;-38
2022/06/24 09:05:49;;;;;;;6.97;4.60;;;21.30;99.90;;;;;;5029757;28;20076;-38
2022/06/24 09:08:16;;;;;;;9.20;5.22;;;21.40;99.90;;;;;;5030221;28;20452;-38
2022/06/24 09:11:05;;;;;;;9.10;4.80;;;21.50;99.90;;;;;;5029000;28;20497;-38
2022/06/24 09:13:30;;;;;;;5.97;4.78;;;21.60;99.90;;;;;;5029293;28;20054;-38
2022/06/24 09:15:56;;;;;;;5.53;4.22;;;21.70;99.90;;;;;;5029290;28;20562;-38
2022/06/24 09:18:23;;;;;;;5.32;4.20;;;21.80;99.90;;;;;;5029690;28;20041;-38
2022/06/24 09:20:50;;;;;;;5.82;4.55;;;21.70;99.90;;;;;;5028991;28;20489;-38
2022/06/24 09:23:16;;;;;;;6.05;4.45;;;21.70;99.90;;;;;;5029784;28;20049;-38
2022/06/24 09:25:49;;;;;;;5.72;5.00;;;21.70;99.90;;;;;;5029185;28;20127;-38
2022/06/24 09:28:27;;;;;;;4.75;3.72;;;21.80;99.90;;;;;;5029928;28;20102;-38
2022/06/24 09:31:04;;;;;;;5.05;4.50;;;22.20;99.90;;;;;;5027774;28;20083;-38
2022/06/24 09:33:41;;;;;;;5.95;4.30;;;22.50;99.90;;;;;;5029671;28;20060;-38
2022/06/24 09:36:09;;;;;;;5.20;3.95;;;22.70;99.90;;;;;;5029469;28;20072;-38
2022/06/24 09:39:02;;;;;;;10.23;4.93;;;22.70;99.90;;;;;;5028959;28;20496;-38
2022/06/24 09:41:28;;;;;;;5.53;4.00;;;22.40;99.90;;;;;;5029157;28;20052;-38
2022/06/24 09:43:58;;;;;;;5.35;3.53;;;22.30;99.90;;;;;;5028813;28;20042;-38
2022/06/24 09:46:24;;;;;;;5.00;3.50;;;22.10;99.90;;;;;;5029220;28;20087;-38
2022/06/24 09:49:00;;;;;;;4.53;3.80;;;21.90;99.90;;;;;;5028101;28;20103;-38
2022/06/24 09:51:27;;;;;;;6.30;4.53;;;21.70;99.90;;;;;;5028882;28;20639;-38
2022/06/24 09:53:54;;;;;;;6.90;4.85;;;21.50;99.90;;;;;;5029080;28;20500;-38
2022/06/24 09:56:20;;;;;;;7.90;5.13;;;21.40;99.90;;;;;;5029502;28;20046;-38
2022/06/24 10:01:38;;;;;;;9.57;5.32;;;21.10;99.90;;;;;;5027432;28;20136;-38
2022/06/24 10:04:05;;;;;;;8.30;5.45;;;21.20;99.90;;;;;;5028764;28;20041;-38
2022/06/24 10:06:35;;;;;;;5.85;4.80;;;20.80;99.90;;;;;;5029044;28;20045;-38
2022/06/24 10:09:03;;;;;;;7.20;4.72;;;20.70;99.90;;;;;;5028241;28;20056;-38
2022/06/24 10:11:30;;;;;;;7.07;5.40;;;20.70;99.90;;;;;;5026916;28;20493;-38
2022/06/24 10:13:57;;;;;;;11.73;6.32;;;20.60;99.90;;;;;;5028211;28;20501;-37
2022/06/24 10:16:24;;;;;;;11.82;6.00;;;20.50;99.90;;;;;;5027950;28;20512;-38
2022/06/24 10:18:51;;;;;;;11.30;6.57;;;20.20;99.90;;;;;;5027915;28;20818;-38
2022/06/24 10:21:18;;;;;;;13.75;6.63;;;20.00;99.90;;;;;;5028425;28;20045;-38
2022/06/24 10:23:52;;;;;;;29.05;6.88;;;19.80;99.90;;;;;;5028112;28;20049;-38
2022/06/24 10:26:30;;;;;;;21.65;7.70;;;19.60;99.90;;;;;;5027847;28;20053;-38
2022/06/24 10:29:03;;;;;;;50.88;11.52;;;19.40;99.90;;;;;;5028556;28;20054;-38
2022/06/24 10:31:54;;;;;;;21.92;7.18;;;19.20;99.90;;;;;;5028169;28;20091;-39
2022/06/24 10:34:22;;;;;;;34.40;5.10;;;19.10;99.90;;;;;;5028151;28;20049;-38
2022/06/24 10:36:51;;;;;;;11.63;4.18;;;19.00;99.90;;;;;;5028751;28;20130;-38
2022/06/24 10:39:22;;;;;;;20.95;5.10;;;18.90;99.90;;;;;;5028960;28;20041;-38
2022/06/24 10:41:58;;;;;;;11.23;6.15;;;18.80;99.90;;;;;;5028741;28;20099;-38
2022/06/24 10:44:35;;;;;;;34.83;12.15;;;18.70;99.90;;;;;;5029412;28;20128;-38
2022/06/24 10:47:10;;;;;;;29.70;10.40;;;18.70;99.90;;;;;;5024161;28;20041;-37
2022/06/24 10:50:01;;;;;;;57.85;15.30;;;18.60;99.90;;;;;;5024274;28;20042;-38
2022/06/24 10:52:48;;;;;;;50.92;13.68;;;18.60;99.90;;;;;;5025612;28;20124;-37
2022/06/24 10:58:08;;;;;;;28.95;11.90;;;20.70;99.90;;;;;;5027091;28;20115;-35
2022/06/24 11:00:37;;;;;;;24.10;11.05;;;18.30;99.90;;;;;;5025717;28;20048;-38
2022/06/24 11:03:03;;;;;;;27.33;10.73;;;18.20;99.90;;;;;;5026522;28;20045;-38
2022/06/24 11:05:47;;;;;;;31.08;10.27;;;18.20;99.90;;;;;;5026771;28;20095;-40
2022/06/24 11:08:19;;;;;;;22.27;8.95;;;18.20;99.90;;;;;;5026188;28;20045;-39
2022/06/24 11:10:49;;;;;;;18.70;8.43;;;18.10;99.90;;;;;;5027342;28;20056;-38
2022/06/24 11:13:15;;;;;;;15.45;8.38;;;18.00;99.90;;;;;;5026529;28;20838;-37
2022/06/24 11:15:46;;;;;;;14.90;6.38;;;18.00;99.90;;;;;;5026427;28;20041;-37
2022/06/24 11:18:17;;;;;;;18.73;7.35;;;17.90;99.90;;;;;;5026739;28;20045;-37
2022/06/24 11:20:49;;;;;;;18.53;7.10;;;17.80;99.90;;;;;;5027029;28;20508;-38
2022/06/24 11:23:20;;;;;;;19.90;7.90;;;17.80;99.90;;;;;;5026737;28;20334;-41
2022/06/24 11:25:48;;;;;;;25.98;9.05;;;18.70;99.90;;;;;;5026343;28;20607;-37
2022/06/24 11:28:19;;;;;;;18.35;8.07;;;17.60;99.90;;;;;;5026919;28;20144;-37
2022/06/24 11:30:45;;;;;;;24.93;9.90;;;17.50;99.90;;;;;;5026732;28;20084;-38
2022/06/24 11:33:11;;;;;;;15.45;7.57;;;17.60;99.90;;;;;;5026313;28;20279;-39
2022/06/24 11:35:37;;;;;;;19.73;7.80;;;17.60;99.90;;;;;;5026667;28;20248;-38
2022/06/24 11:38:06;;;;;;;28.15;10.02;;;17.50;99.90;;;;;;5026177;28;20104;-38
2022/06/24 11:40:32;;;;;;;38.72;10.95;;;17.50;99.90;;;;;;5026323;28;20064;-37
2022/06/24 11:43:11;;;;;;;29.33;10.57;;;17.50;99.90;;;;;;5026763;28;20076;-40
2022/06/24 11:45:41;;;;;;;24.83;10.38;;;17.90;99.90;;;;;;5024497;28;20045;-40
2022/06/24 11:48:10;;;;;;;52.92;15.57;;;17.60;99.90;;;;;;5026096;28;20222;-41
2022/06/24 11:50:37;;;;;;;26.65;11.23;;;17.70;99.90;;;;;;5026628;28;20184;-40
2022/06/24 11:53:04;;;;;;;60.72;15.57;;;17.80;99.90;;;;;;5026285;28;20046;-38
2022/06/24 11:55:34;;;;;;;37.90;13.73;;;17.80;99.90;;;;;;5026200;28;20111;-37
2022/06/24 11:58:01;;;;;;;19.05;9.30;;;18.00;99.90;;;;;;5026373;28;20363;-38
2022/06/24 12:00:32;;;;;;;152.35;32.50;;;18.20;99.90;;;;;;5026252;28;20049;-38
2022/06/24 12:02:58;;;;;;;164.60;33.22;;;18.50;99.90;;;;;;5026418;28;20049;-39
2022/06/24 12:05:30;;;;;;;58.47;17.65;;;18.70;99.90;;;;;;5026872;28;20041;-40
2022/06/24 12:07:58;;;;;;;590.00;76.00;;;19.00;99.90;;;;;;5026712;28;20077;-40
2022/06/24 12:10:23;;;;;;;46.30;10.90;;;19.30;99.90;;;;;;5026700;28;20042;-40
2022/06/24 12:12:59;;;;;;;394.27;46.47;;;19.60;99.90;;;;;;5030267;28;20037;-41
2022/06/24 12:15:31;;;;;;;453.02;63.63;;;19.80;99.90;;;;;;5030067;28;20495;-40
2022/06/24 12:17:57;;;;;;;31.90;14.80;;;19.90;99.90;;;;;;5030866;28;20046;-39
2022/06/24 12:20:26;;;;;;;94.32;22.80;;;20.00;99.90;;;;;;5030854;28;20055;-40
2022/06/24 12:23:17;;;;;;;36.75;12.35;;;20.10;99.90;;;;;;5030949;28;20049;-39
2022/06/24 12:25:46;;;;;;;67.63;15.10;;;20.10;99.90;;;;;;5029959;28;20128;-40
2022/06/24 12:28:23;;;;;;;136.68;23.88;;;20.10;99.90;;;;;;5030251;28;20804;-37
2022/06/24 12:31:01;;;;;;;20.80;9.32;;;20.20;99.90;;;;;;5029930;28;20096;-37
2022/06/24 12:33:29;;;;;;;20.42;9.48;;;20.40;99.90;;;;;;5030431;28;20792;-38
2022/06/24 12:36:09;;;;;;;9.23;7.22;;;20.60;99.90;;;;;;5029931;28;20489;-37
2022/06/24 12:38:36;;;;;;;12.13;8.55;;;20.70;99.90;;;;;;5030507;28;20099;-38
2022/06/24 12:41:13;;;;;;;22.45;8.48;;;21.10;99.90;;;;;;5029705;28;20048;-37
2022/06/24 12:43:51;;;;;;;9.18;7.05;;;21.30;99.90;;;;;;5030036;28;20547;-37
2022/06/24 12:46:16;;;;;;;6.57;4.38;;;21.40;99.90;;;;;;5028746;28;20041;-37
2022/06/24 12:51:26;;;;;;;8.32;5.53;;;21.60;99.90;;;;;;5029769;28;20055;-37
2022/06/24 12:53:56;;;;;;;7.60;6.80;;;21.80;99.90;;;;;;5029911;28;20053;-40
2022/06/24 12:56:22;;;;;;;8.90;7.97;;;21.80;99.90;;;;;;5029164;28;20045;-36
2022/06/24 12:58:51;;;;;;;10.13;6.75;;;22.20;99.90;;;;;;5029505;28;20060;-36
2022/06/24 13:01:18;;;;;;;10.85;8.05;;;22.00;99.90;;;;;;5029344;28;20053;-38
2022/06/24 13:03:44;;;;;;;9.73;8.73;;;22.20;99.90;;;;;;5029608;28;20053;-39